Select your language:
100 km durch den Süden des Ruhrgebiets   Online Marketing Agentur sucht Gipfelstürmer   Andorra Ultra Trail  
  AK:   Land:   Ø Geschw.:   AK-Wertung:   
Datum: 11.03.2012 Send Link
Veranstaltung: 3rd Mesquite Canyon 50 km (USA) Mehr Details zum Lauf.
Strecke: 50km Landschaftslauf/Trail Ewige Bestenliste dieser Veranstaltung.
Finisher: 76 (62 M, 14 W) Mehrfach-Finisher.
Bestenlisten-tauglich: Nein
Ergebnisliste von: Link (Quelle zum Zeitpunkt der Erfassung.)
Erfassung durch: Andreas Knop     11.10.2012 16:22
 
76 Suchergebnisse
Gesamt- Rang Leistung Nachname, Vorname Verein Nat. Jg. M/W Rang M/W AK AK Rang Ø Geschw. km/h alters- korrigierte Leistung
1 4:10:18 h   Bohn, Eric *Flagstaff, AZ   USA  1981 M 1 M23  1 11.986 4:10:18 h
2 4:15:32 h   Ebel, Boone *Chandler, AZ   USA  1981 M 2 M23  2 11.740 4:15:32 h
3 4:24:37 h   Bruxvoort, Kerrie *Broomfield, CO   USA  1976 W 1 W35  1 11.337 4:22:40 h
4 4:30:32 h   Carson, Michael *Gold Canyon, AZ   USA  1986 M 3 M23  3 11.089 4:30:32 h
5 4:39:27 h   Willis, James *Flagstaff, AZ   USA  1976 M 4 M35  1 10.735 4:38:04 h
6 4:48:39 h   Kaine, Alexander *Peoria, AZ   USA  1976 M 5 M35  2 10.393 4:47:13 h
7 4:55:50 h   Baron, Erica *Los Alamos, NM   USA  1971 W 2 W40  1 10.141 4:46:56 h
8 5:00:55 h   Moore, Curtis *Gorham, NH   USA  1981 M 6 M23  4 9.970 5:00:55 h
9 5:05:45 h   Alexander, Jesse *AZ   USA  1966 M 7 M45  1 9.812 4:45:53 h
10 5:13:59 h   Dougherty, Jeremy *Phoenix, AZ   USA  1980 M 8 M23  5 9.555 5:13:59 h
11 5:13:59 h   Bajer, Scott *Flagstaff, AZ   USA  1975 M 9 M35  3 9.555 5:11:29 h
12 5:15:44 h   Smith, Michael *Yuma, AZ   USA  1975 M 10 M35  4 9.502 5:13:13 h
13 5:17:03 h   Kollar, Nick *Las Vegas, NV   USA  1976 M 11 M35  5 9.462 5:15:28 h
14 5:17:44 h   Peelle, Trent *Phoenix, AZ   USA  1976 M 12 M35  6 9.442 5:16:09 h
15 5:20:49 h   Felton, Andrea *Scottsdale, AZ   USA  1976 W 3 W35  2 9.351 5:18:27 h
16 5:20:49 h   Zillmer, Paulette *Scottsdale, AZ   USA  1982 W 4 W23  1 9.351 5:20:49 h
17 5:20:52 h   Lipetzky, Steve *Sheridan, WY   USA  1982 M 13 M23  6 9.350 5:20:52 h
18 5:26:32 h   Plumb, Spencer *Flagstaff, AZ   USA  1982 M 14 M23  7 9.187 5:26:32 h
19 5:31:29 h   Toma, Marius *Chandler, AZ   USA  1977 M 15 M23  8 9.050 5:30:36 h
20 5:43:50 h   Long, Matt *Poplar, WI   USA  1956 M 16 M55  1 8.725 4:54:45 h
21 5:46:23 h   Richards, Thomas *Phoenix, AZ   USA  1982 M 17 M23  9 8.661 5:46:23 h
22 5:49:06 h   Drelick, Julius *Scottsdale, AZ   USA  1966 M 18 M45  2 8.594 5:26:25 h
23 5:49:31 h   Dahn, Michael *Phoenix, AZ   USA  1969 M 19 M40  1 8.583 5:34:59 h
24 5:49:35 h   Dada, Geoff *Scottsdale, AZ   USA  1982 M 20 M23  10 8.582 5:49:35 h
25 5:53:27 h   Ward, Steve *Phoenix, AZ   USA  1969 M 21 M40  2 8.488 5:38:45 h
26 5:58:23 h   Miller, Michael *Scottsdale, AZ   USA  1962 M 22 M45  3 8.371 5:23:57 h
27 6:00:47 h   Cagle, Dan *Phoenix, AZ   USA  1972 M 23 M35  7 8.315 5:53:00 h
28 6:15:47 h   Ulm, Rob *Charleston, IL   USA  1976 M 24 M35  8 7.983 6:13:55 h
29 6:16:43 h   Russ, Tony *Dewey, AZ   USA  1984 M 25 M23  11 7.964 6:16:43 h
30 6:18:49 h   Skeer, Michael *Sedona, AZ   USA  1974 M 26 M35  9 7.919 6:14:21 h
31 6:21:03 h   Albrecht, Honey *Glendale, AZ   USA  1959 W 5 W50  1 7.873 5:26:48 h
32 6:23:54 h   Guzman, Darrell *Rio Rancho, NM   USA  1970 M 27 M40  3 7.815 6:10:47 h
33 6:25:39 h   Littlehat, Peter *Many Farms, AZ   USA  1975 M 28 M35  10 7.779 6:22:34 h
34 6:25:40 h   Byrnes, David *Tempe, AZ   USA  1982 M 29 M23  12 7.779 6:25:40 h
35 6:25:52 h   Rondeau, Paul *Anthem, AZ   USA  1959 M 30 M50  1 7.775 5:39:48 h
36 6:26:13 h   Baker, Brett *Gilbert, AZ   USA  1982 M 31 M23  13 7.768 6:26:13 h
37 6:29:01 h   Leon, Luis *Tucson, AZ   USA  1969 M 32 M40  4 7.712 6:12:51 h
38 6:31:54 h   Hamberlin, Deborah *Tempe, AZ   USA  1968 W 6 W40  2 7.655 6:11:53 h
39 6:32:07 h   Huselid, Zachary *Mesa, AZ   USA  1978 M 33 M23  14 7.651 6:31:42 h
40 6:34:00 h   Bain, Janet *Flagstaff, AZ   USA  1975 W 7 W35  3 7.614 6:29:48 h
41 6:34:06 h   Kenkel, Julie *Flagstaff, AZ   USA  1986 W 8 W23  2 7.612 6:34:06 h
42 6:35:14 h   Pacheco, Dominic *Chandler, AZ   USA  1976 M 34 M35  11 7.590 6:33:16 h
43 6:35:18 h   Priebe, Iris *Calgary, AB   CAN  1969 W 9 W40  3 7.589 6:18:07 h
44 6:36:35 h   Bailey, Graham *Nome, AK   USA  1986 M 35 M23  15 7.565 6:36:35 h
45 6:36:41 h   Heidemann, Curt *Phoenix, AZ   USA  1971 M 36 M40  5 7.563 6:25:47 h
46 6:38:53 h   Brenden, Daniel *Phoenix, AZ   USA  1951 M 37 M60  1 7.521 5:26:25 h
47 6:39:47 h   Nagalla, Manoj *Phoenix, AZ   USA  1979 M 38 M23  16 7.504 6:39:43 h
48 6:40:10 h   McDonough, James *Anchorage, AK   USA  1971 M 39 M40  6 7.497 6:29:10 h
49 6:42:28 h   Widener, Timothy *Goodyear, AZ   USA  1975 M 40 M35  12 7.454 6:39:15 h
50 6:46:31 h   Ballantine, Tab *Anchorage, AK   USA  1954 M 41 M55  2 7.380 5:42:10 h
51 6:49:31 h   Canning, Joshua *Phoenix, AZ   USA  1980 M 42 M23  17 7.326 6:49:31 h
52 6:50:03 h   Motter, Joshua *Cave Creek, AZ   USA  1974 M 43 M35  13 7.316 6:45:13 h
53 6:51:55 h   Thier, Liam *El Cajon, CA   USA  1979 M 44 M23  18 7.283 6:51:51 h
54 6:55:47 h   Hulbert, Lee *Mesa, AZ   USA  1966 M 45 M45  4 7.215 6:28:46 h
55 7:10:30 h   Brosious, Daniel *Tempe, AZ   USA  1983 M 46 M23  19 6.969 7:10:30 h
56 7:11:07 h   McKnight, Richard *Scottsdale, AZ   USA  1969 M 47 M40  7 6.959 6:53:11 h
57 7:29:59 h   Kieklak, Herb *Scottsdale, AZ   USA  1961 M 48 M50  2 6.667 6:43:14 h
58 7:32:48 h   Hansen, Kate *Phoenix, AZ   USA  1955 W 10 W55  1 6.625 6:08:24 h
59 7:32:58 h   Blakemore, John *Westlake, OH   USA  1944 M 49 M65  1 6.623 5:46:02 h
60 7:38:14 h   Davenport, Trevor *Gilbert, AZ   USA  1973 M 50 M35  14 6.547 7:30:46 h
61 7:39:48 h   Webb, Larry *St. Albert, AB   CAN  1954 M 51 M55  3 6.525 6:27:01 h
62 7:39:53 h   Rein, Brian *Sherwood Park, AB   CAN  1960 M 52 M50  3 6.523 6:48:34 h
63 7:42:14 h   Rios, Cristian *Phoenix, AZ   USA  1992 M 53 MU23  1 6.490 7:42:14 h
64 7:43:00 h   Booker, Robert *Mesa, AZ   USA  1963 M 54 M45  5 6.479 7:02:08 h
65 8:06:29 h   Hansen, Dean *Prescott, AZ   USA  1955 M 55 M55  4 6.167 6:53:17 h
66 8:06:29 h   Schmidt, Carin *Gilbert, AZ   USA  1974 W 11 W35  4 6.167 7:59:23 h
67 8:06:30 h   Medina, Anthony *Chicago, IL   USA  1968 M 56 M40  8 6.166 7:42:29 h
68 8:27:50 h   Lopez, Rod *Orland Park, IL   USA  1967 M 57 M40  9 5.907 7:58:48 h
69 8:43:57 h   Brennan, Ross *Washington, DC   USA  1960 M 58 M50  4 5.726 7:45:29 h
70 8:55:09 h   McBreen, Andrew *Buckeye, AZ   USA  1967 M 59 M40  10 5.606 8:24:33 h
71 8:55:59 h   Valverde, Sergio *Saint Paul, MN   USA  1974 M 60 M35  15 5.597 8:49:40 h
72 9:01:26 h   Miner, Michelle *Peoria, AZ   USA  1969 W 12 W40  4 5.541 8:37:53 h
73 9:11:36 h   Reynolds, Demetra *Scottsdale, AZ   USA  1969 W 13 W40  5 5.439 8:47:37 h
74 9:33:08 h   Dennis, Peggy *Phoenix, AZ   USA  1960 W 14 W50  2 5.234 8:17:50 h
75 9:36:51 h   Hall, Jeff *Sun City West, AZ   USA  1960 M 61 M50  5 5.201 8:32:29 h
76 10:01:41 h   Gensler, Hal *New River, AZ   USA  1946 M 62 M65  2 4.986 7:48:58 h